sensor_id;sensor_type;location;lat;lon;timestamp;pressure;altitude;pressure_sealevel;temperature;humidity
72558;BME280;60583;50.094;8.748;2023-04-27T00:01:31;100717.22;;;8.18;67.08
72558;BME280;60583;50.094;8.748;2023-04-27T00:03:57;100719.50;;;8.21;65.42
72558;BME280;60583;50.094;8.748;2023-04-27T00:06:22;100724.13;;;8.35;64.12
72558;BME280;60583;50.094;8.748;2023-04-27T00:08:48;100707.53;;;8.25;63.60
72558;BME280;60583;50.094;8.748;2023-04-27T00:11:13;100723.47;;;8.33;62.58
72558;BME280;60583;50.094;8.748;2023-04-27T00:13:39;100688.19;;;8.08;61.53
72558;BME280;60583;50.094;8.748;2023-04-27T00:16:04;100715.22;;;8.20;62.35
72558;BME280;60583;50.094;8.748;2023-04-27T00:18:31;100693.66;;;8.15;62.73
72558;BME280;60583;50.094;8.748;2023-04-27T00:20:57;100710.34;;;8.31;62.09
72558;BME280;60583;50.094;8.748;2023-04-27T00:23:22;100716.44;;;8.40;62.14
72558;BME280;60583;50.094;8.748;2023-04-27T00:25:48;100705.88;;;8.32;62.18
72558;BME280;60583;50.094;8.748;2023-04-27T00:28:13;100691.59;;;8.25;63.35
72558;BME280;60583;50.094;8.748;2023-04-27T00:30:39;100712.47;;;8.36;63.05
72558;BME280;60583;50.094;8.748;2023-04-27T00:33:04;100705.88;;;8.24;63.11
72558;BME280;60583;50.094;8.748;2023-04-27T00:35:34;100677.25;;;8.11;62.32
72558;BME280;60583;50.094;8.748;2023-04-27T00:37:59;100702.22;;;8.25;62.61
72558;BME280;60583;50.094;8.748;2023-04-27T00:40:25;100698.72;;;8.32;63.03
72558;BME280;60583;50.094;8.748;2023-04-27T00:42:50;100675.41;;;8.12;62.90
72558;BME280;60583;50.094;8.748;2023-04-27T00:45:15;100690.69;;;8.10;61.95
72558;BME280;60583;50.094;8.748;2023-04-27T00:47:41;100689.69;;;8.11;62.39
72558;BME280;60583;50.094;8.748;2023-04-27T00:50:07;100708.53;;;8.24;61.59
72558;BME280;60583;50.094;8.748;2023-04-27T00:52:38;100688.66;;;8.20;61.11
72558;BME280;60583;50.094;8.748;2023-04-27T00:55:04;100701.91;;;8.28;61.09
72558;BME280;60583;50.094;8.748;2023-04-27T00:57:30;100695.59;;;8.21;61.36
72558;BME280;60583;50.094;8.748;2023-04-27T00:59:56;100707.94;;;8.14;61.92
72558;BME280;60583;50.094;8.748;2023-04-27T01:02:21;100697.16;;;8.15;60.86
72558;BME280;60583;50.094;8.748;2023-04-27T01:04:47;100713.88;;;8.16;61.46
72558;BME280;60583;50.094;8.748;2023-04-27T01:07:15;100709.28;;;8.10;60.93
72558;BME280;60583;50.094;8.748;2023-04-27T01:09:40;100722.78;;;8.00;61.23
72558;BME280;60583;50.094;8.748;2023-04-27T01:12:06;100722.34;;;7.89;61.49
72558;BME280;60583;50.094;8.748;2023-04-27T01:14:32;100719.88;;;7.87;61.16
72558;BME280;60583;50.094;8.748;2023-04-27T01:16:57;100723.78;;;7.99;61.57
72558;BME280;60583;50.094;8.748;2023-04-27T01:19:22;100707.50;;;7.63;61.71
72558;BME280;60583;50.094;8.748;2023-04-27T01:21:48;100726.78;;;7.57;62.64
72558;BME280;60583;50.094;8.748;2023-04-27T01:24:13;100713.38;;;7.43;63.04
72558;BME280;60583;50.094;8.748;2023-04-27T01:26:39;100720.84;;;7.39;63.76
72558;BME280;60583;50.094;8.748;2023-04-27T01:29:04;100723.63;;;7.54;63.24
72558;BME280;60583;50.094;8.748;2023-04-27T01:31:30;100671.69;;;7.13;63.75
72558;BME280;60583;50.094;8.748;2023-04-27T01:33:55;100709.28;;;7.32;65.93
72558;BME280;60583;50.094;8.748;2023-04-27T01:36:21;100725.47;;;7.45;65.77
72558;BME280;60583;50.094;8.748;2023-04-27T01:38:46;100719.31;;;7.53;67.10
72558;BME280;60583;50.094;8.748;2023-04-27T01:41:11;100719.31;;;7.53;67.09
72558;BME280;60583;50.094;8.748;2023-04-27T01:43:37;100725.63;;;7.52;67.10
72558;BME280;60583;50.094;8.748;2023-04-27T01:46:10;100717.19;;;7.40;66.96
72558;BME280;60583;50.094;8.748;2023-04-27T01:48:37;100736.47;;;7.34;67.29
72558;BME280;60583;50.094;8.748;2023-04-27T01:51:02;100739.94;;;7.35;67.52
72558;BME280;60583;50.094;8.748;2023-04-27T01:53:28;100734.47;;;7.28;68.45
72558;BME280;60583;50.094;8.748;2023-04-27T01:55:54;100726.38;;;7.14;68.09
72558;BME280;60583;50.094;8.748;2023-04-27T01:58:19;100742.59;;;7.19;67.21
72558;BME280;60583;50.094;8.748;2023-04-27T02:00:44;100731.81;;;7.20;66.28
72558;BME280;60583;50.094;8.748;2023-04-27T02:03:10;100749.59;;;7.20;67.17
72558;BME280;60583;50.094;8.748;2023-04-27T02:05:35;100755.69;;;7.28;66.46
72558;BME280;60583;50.094;8.748;2023-04-27T02:08:01;100752.38;;;7.26;66.61
72558;BME280;60583;50.094;8.748;2023-04-27T02:10:26;100766.78;;;7.32;66.78
72558;BME280;60583;50.094;8.748;2023-04-27T02:12:51;100762.66;;;7.29;67.22
72558;BME280;60583;50.094;8.748;2023-04-27T02:15:17;100757.69;;;7.26;67.02
72558;BME280;60583;50.094;8.748;2023-04-27T02:17:42;100743.78;;;7.08;67.88
72558;BME280;60583;50.094;8.748;2023-04-27T02:20:08;100740.13;;;7.09;68.15
72558;BME280;60583;50.094;8.748;2023-04-27T02:22:35;100753.72;;;7.22;67.52
72558;BME280;60583;50.094;8.748;2023-04-27T02:25:02;100754.88;;;7.03;67.84
72558;BME280;60583;50.094;8.748;2023-04-27T02:27:27;100706.38;;;6.79;68.89
72558;BME280;60583;50.094;8.748;2023-04-27T02:29:52;100738.00;;;7.04;67.62
72558;BME280;60583;50.094;8.748;2023-04-27T02:32:18;100750.75;;;7.09;67.98
72558;BME280;60583;50.094;8.748;2023-04-27T02:34:43;100749.41;;;7.05;68.23
72558;BME280;60583;50.094;8.748;2023-04-27T02:37:09;100751.91;;;7.06;68.63
72558;BME280;60583;50.094;8.748;2023-04-27T02:39:35;100756.88;;;7.01;69.70
72558;BME280;60583;50.094;8.748;2023-04-27T02:42:00;100757.22;;;6.98;68.91
72558;BME280;60583;50.094;8.748;2023-04-27T02:44:27;100748.59;;;6.88;69.21
72558;BME280;60583;50.094;8.748;2023-04-27T02:46:52;100755.41;;;7.07;67.85
72558;BME280;60583;50.094;8.748;2023-04-27T02:49:17;100746.44;;;7.00;68.33
72558;BME280;60583;50.094;8.748;2023-04-27T02:51:43;100740.16;;;6.77;67.17
72558;BME280;60583;50.094;8.748;2023-04-27T02:54:08;100752.25;;;6.79;66.96
72558;BME280;60583;50.094;8.748;2023-04-27T02:56:34;100755.22;;;6.76;67.46
72558;BME280;60583;50.094;8.748;2023-04-27T02:58:59;100759.03;;;6.82;66.53
72558;BME280;60583;50.094;8.748;2023-04-27T03:01:25;100746.75;;;6.65;67.13
72558;BME280;60583;50.094;8.748;2023-04-27T03:03:50;100747.44;;;6.67;67.48
72558;BME280;60583;50.094;8.748;2023-04-27T03:06:15;100696.91;;;6.52;66.43
72558;BME280;60583;50.094;8.748;2023-04-27T03:08:41;100733.53;;;6.81;65.52
72558;BME280;60583;50.094;8.748;2023-04-27T03:11:06;100716.31;;;6.69;64.92
72558;BME280;60583;50.094;8.748;2023-04-27T03:13:33;100737.16;;;6.88;65.51
72558;BME280;60583;50.094;8.748;2023-04-27T03:16:09;100738.16;;;6.95;65.27
72558;BME280;60583;50.094;8.748;2023-04-27T03:18:37;100745.44;;;7.09;65.42
72558;BME280;60583;50.094;8.748;2023-04-27T03:21:07;100731.03;;;7.12;65.14
72558;BME280;60583;50.094;8.748;2023-04-27T03:23:33;100745.13;;;6.96;66.46
72558;BME280;60583;50.094;8.748;2023-04-27T03:25:58;100750.41;;;6.96;66.49
72558;BME280;60583;50.094;8.748;2023-04-27T03:28:24;100697.09;;;6.67;66.16
72558;BME280;60583;50.094;8.748;2023-04-27T03:30:49;100733.69;;;6.87;66.46
72558;BME280;60583;50.094;8.748;2023-04-27T03:33:15;100744.47;;;7.02;66.53
72558;BME280;60583;50.094;8.748;2023-04-27T03:35:42;100723.06;;;6.87;66.45
72558;BME280;60583;50.094;8.748;2023-04-27T03:38:07;100745.44;;;7.09;65.99
72558;BME280;60583;50.094;8.748;2023-04-27T03:40:33;100744.28;;;7.12;66.10
72558;BME280;60583;50.094;8.748;2023-04-27T03:42:58;100727.88;;;7.08;65.96
72558;BME280;60583;50.094;8.748;2023-04-27T03:45:24;100736.00;;;7.06;66.52
72558;BME280;60583;50.094;8.748;2023-04-27T03:47:49;100719.75;;;6.93;66.19
72558;BME280;60583;50.094;8.748;2023-04-27T03:50:15;100723.91;;;6.80;67.01
72558;BME280;60583;50.094;8.748;2023-04-27T03:52:40;100713.47;;;6.78;66.53
72558;BME280;60583;50.094;8.748;2023-04-27T03:55:06;100727.53;;;6.95;65.94
72558;BME280;60583;50.094;8.748;2023-04-27T03:57:32;100726.22;;;6.99;66.17
72558;BME280;60583;50.094;8.748;2023-04-27T03:59:57;100733.84;;;7.02;66.52
72558;BME280;60583;50.094;8.748;2023-04-27T04:02:22;100736.50;;;6.94;66.71
72558;BME280;60583;50.094;8.748;2023-04-27T04:04:48;100729.72;;;6.83;66.59
72558;BME280;60583;50.094;8.748;2023-04-27T04:07:13;100719.28;;;6.74;66.56
72558;BME280;60583;50.094;8.748;2023-04-27T04:09:39;100721.59;;;6.77;66.79
72558;BME280;60583;50.094;8.748;2023-04-27T04:12:04;100755.06;;;6.86;66.57
72558;BME280;60583;50.094;8.748;2023-04-27T04:14:30;100740.63;;;6.80;67.25
72558;BME280;60583;50.094;8.748;2023-04-27T04:16:56;100752.09;;;6.97;66.14
72558;BME280;60583;50.094;8.748;2023-04-27T04:19:21;100755.38;;;6.91;66.33
72558;BME280;60583;50.094;8.748;2023-04-27T04:21:46;100745.78;;;6.82;67.28
72558;BME280;60583;50.094;8.748;2023-04-27T04:24:12;100755.41;;;6.99;66.76
72558;BME280;60583;50.094;8.748;2023-04-27T04:26:37;100761.03;;;6.96;66.18
72558;BME280;60583;50.094;8.748;2023-04-27T04:29:03;100758.69;;;7.01;65.68
72558;BME280;60583;50.094;8.748;2023-04-27T04:31:29;100754.38;;;7.00;66.21
72558;BME280;60583;50.094;8.748;2023-04-27T04:33:54;100765.00;;;7.08;66.28
72558;BME280;60583;50.094;8.748;2023-04-27T04:36:20;100757.38;;;6.97;66.60
72558;BME280;60583;50.094;8.748;2023-04-27T04:38:45;100745.44;;;6.93;66.16
72558;BME280;60583;50.094;8.748;2023-04-27T04:41:11;100750.91;;;7.07;65.60
72558;BME280;60583;50.094;8.748;2023-04-27T04:43:36;100768.47;;;7.17;65.89
72558;BME280;60583;50.094;8.748;2023-04-27T04:46:02;100759.34;;;7.19;65.67
72558;BME280;60583;50.094;8.748;2023-04-27T04:48:27;100766.00;;;6.99;66.12
72558;BME280;60583;50.094;8.748;2023-04-27T04:50:53;100770.97;;;7.02;65.90
72558;BME280;60583;50.094;8.748;2023-04-27T04:53:18;100766.81;;;7.07;66.56
72558;BME280;60583;50.094;8.748;2023-04-27T04:55:44;100756.38;;;7.06;66.16
72558;BME280;60583;50.094;8.748;2023-04-27T04:58:09;100771.63;;;7.12;66.09
72558;BME280;60583;50.094;8.748;2023-04-27T05:00:34;100763.00;;;7.10;66.50
72558;BME280;60583;50.094;8.748;2023-04-27T05:03:00;100771.28;;;7.15;66.20
72558;BME280;60583;50.094;8.748;2023-04-27T05:05:25;100770.94;;;7.26;65.61
72558;BME280;60583;50.094;8.748;2023-04-27T05:07:51;100771.44;;;7.22;65.43
72558;BME280;60583;50.094;8.748;2023-04-27T05:10:16;100759.69;;;7.16;65.66
72558;BME280;60583;50.094;8.748;2023-04-27T05:12:41;100770.94;;;7.42;65.55
72558;BME280;60583;50.094;8.748;2023-04-27T05:15:08;100771.41;;;7.38;64.38
72558;BME280;60583;50.094;8.748;2023-04-27T05:17:34;100779.69;;;7.51;65.33
72558;BME280;60583;50.094;8.748;2023-04-27T05:19:59;100774.72;;;7.48;64.84
72558;BME280;60583;50.094;8.748;2023-04-27T05:22:25;100789.47;;;7.50;65.12
72558;BME280;60583;50.094;8.748;2023-04-27T05:24:50;100790.31;;;7.43;64.29
72558;BME280;60583;50.094;8.748;2023-04-27T05:27:16;100785.38;;;7.24;64.75
72558;BME280;60583;50.094;8.748;2023-04-27T05:29:41;100790.81;;;7.46;65.36
72558;BME280;60583;50.094;8.748;2023-04-27T05:32:06;100783.16;;;7.59;64.24
72558;BME280;60583;50.094;8.748;2023-04-27T05:34:32;100785.81;;;7.67;63.71
72558;BME280;60583;50.094;8.748;2023-04-27T05:36:57;100796.03;;;7.79;63.08
72558;BME280;60583;50.094;8.748;2023-04-27T05:39:22;100778.28;;;7.79;63.43
72558;BME280;60583;50.094;8.748;2023-04-27T05:41:48;100790.19;;;7.91;62.51
72558;BME280;60583;50.094;8.748;2023-04-27T05:44:13;100796.75;;;8.11;63.20
72558;BME280;60583;50.094;8.748;2023-04-27T05:46:39;100791.59;;;8.18;62.77
72558;BME280;60583;50.094;8.748;2023-04-27T05:49:04;100790.53;;;8.35;62.43
72558;BME280;60583;50.094;8.748;2023-04-27T05:51:31;100784.56;;;8.33;62.15
72558;BME280;60583;50.094;8.748;2023-04-27T05:53:57;100787.66;;;8.45;62.46
72558;BME280;60583;50.094;8.748;2023-04-27T05:56:24;100793.69;;;8.61;62.69
72558;BME280;60583;50.094;8.748;2023-04-27T05:58:49;100796.31;;;8.69;61.89
72558;BME280;60583;50.094;8.748;2023-04-27T06:01:15;100790.28;;;8.75;61.06
72558;BME280;60583;50.094;8.748;2023-04-27T06:03:40;100785.19;;;8.43;61.35
72558;BME280;60583;50.094;8.748;2023-04-27T06:06:05;100820.53;;;8.74;61.05
72558;BME280;60583;50.094;8.748;2023-04-27T06:08:31;100790.16;;;8.91;60.92
72558;BME280;60583;50.094;8.748;2023-04-27T06:10:56;100808.03;;;9.06;59.71
72558;BME280;60583;50.094;8.748;2023-04-27T06:13:22;100794.19;;;9.10;60.68
72558;BME280;60583;50.094;8.748;2023-04-27T06:15:47;100807.38;;;9.41;60.26
72558;BME280;60583;50.094;8.748;2023-04-27T06:18:13;100785.53;;;9.45;60.30
72558;BME280;60583;50.094;8.748;2023-04-27T06:20:38;100812.03;;;9.76;58.45
72558;BME280;60583;50.094;8.748;2023-04-27T06:23:04;100819.38;;;9.74;57.95
72558;BME280;60583;50.094;8.748;2023-04-27T06:25:29;100826.50;;;9.59;56.81
72558;BME280;60583;50.094;8.748;2023-04-27T06:27:56;100806.63;;;9.47;57.53
72558;BME280;60583;50.094;8.748;2023-04-27T06:30:22;100808.88;;;9.73;57.91
72558;BME280;60583;50.094;8.748;2023-04-27T06:32:48;100813.84;;;9.90;58.39
72558;BME280;60583;50.094;8.748;2023-04-27T06:35:14;100820.19;;;10.04;57.73
72558;BME280;60583;50.094;8.748;2023-04-27T06:37:40;100835.75;;;10.30;58.41
72558;BME280;60583;50.094;8.748;2023-04-27T06:40:06;100819.00;;;10.36;56.57
72558;BME280;60583;50.094;8.748;2023-04-27T06:42:32;100828.78;;;10.50;57.21
72558;BME280;60583;50.094;8.748;2023-04-27T06:44:58;100834.03;;;10.58;56.99
72558;BME280;60583;50.094;8.748;2023-04-27T06:47:23;100839.38;;;10.58;56.67
72558;BME280;60583;50.094;8.748;2023-04-27T06:49:49;100832.25;;;10.79;55.30
72558;BME280;60583;50.094;8.748;2023-04-27T06:52:15;100830.16;;;10.96;57.41
72558;BME280;60583;50.094;8.748;2023-04-27T06:54:41;100824.56;;;10.91;56.70
72558;BME280;60583;50.094;8.748;2023-04-27T06:57:06;100799.94;;;10.53;54.80
72558;BME280;60583;50.094;8.748;2023-04-27T06:59:31;100816.25;;;10.65;56.17
72558;BME280;60583;50.094;8.748;2023-04-27T07:01:57;100822.41;;;10.44;55.34
72558;BME280;60583;50.094;8.748;2023-04-27T07:04:22;100832.56;;;10.55;55.20
72558;BME280;60583;50.094;8.748;2023-04-27T07:06:48;100829.16;;;10.82;55.69
72558;BME280;60583;50.094;8.748;2023-04-27T07:09:13;100838.50;;;10.72;55.09
72558;BME280;60583;50.094;8.748;2023-04-27T07:11:39;100822.00;;;10.83;55.30
72558;BME280;60583;50.094;8.748;2023-04-27T07:14:04;100828.50;;;11.16;55.77
72558;BME280;60583;50.094;8.748;2023-04-27T07:16:30;100837.50;;;11.36;55.02
72558;BME280;60583;50.094;8.748;2023-04-27T07:18:55;100816.63;;;11.46;54.03
72558;BME280;60583;50.094;8.748;2023-04-27T07:21:20;100838.34;;;11.65;54.25
72558;BME280;60583;50.094;8.748;2023-04-27T07:23:46;100831.19;;;11.65;52.53
72558;BME280;60583;50.094;8.748;2023-04-27T07:26:11;100828.66;;;11.85;53.34
72558;BME280;60583;50.094;8.748;2023-04-27T07:28:37;100831.31;;;12.19;52.88
72558;BME280;60583;50.094;8.748;2023-04-27T07:31:04;100836.91;;;12.24;52.61
72558;BME280;60583;50.094;8.748;2023-04-27T07:33:30;100834.97;;;12.11;51.21
72558;BME280;60583;50.094;8.748;2023-04-27T07:35:56;100826.06;;;11.21;52.69
72558;BME280;60583;50.094;8.748;2023-04-27T07:38:21;100815.75;;;11.39;53.26
72558;BME280;60583;50.094;8.748;2023-04-27T07:40:47;100831.56;;;11.90;54.08
72558;BME280;60583;50.094;8.748;2023-04-27T07:43:14;100826.59;;;12.21;53.76
72558;BME280;60583;50.094;8.748;2023-04-27T07:45:40;100832.91;;;12.54;52.16
72558;BME280;60583;50.094;8.748;2023-04-27T07:48:05;100813.22;;;12.75;51.37
72558;BME280;60583;50.094;8.748;2023-04-27T07:50:31;100834.28;;;12.31;48.59
72558;BME280;60583;50.094;8.748;2023-04-27T07:52:58;100827.84;;;12.72;48.89
72558;BME280;60583;50.094;8.748;2023-04-27T07:55:24;100832.28;;;12.52;48.88
72558;BME280;60583;50.094;8.748;2023-04-27T07:57:52;100829.53;;;12.93;49.77
72558;BME280;60583;50.094;8.748;2023-04-27T08:00:18;100821.56;;;13.19;49.71
72558;BME280;60583;50.094;8.748;2023-04-27T08:02:43;100808.59;;;13.10;50.79
72558;BME280;60583;50.094;8.748;2023-04-27T08:05:09;100811.88;;;13.25;49.11
72558;BME280;60583;50.094;8.748;2023-04-27T08:07:34;100818.47;;;13.55;48.32
72558;BME280;60583;50.094;8.748;2023-04-27T08:09:59;100809.63;;;13.35;48.72
72558;BME280;60583;50.094;8.748;2023-04-27T08:12:25;100812.72;;;13.12;48.52
72558;BME280;60583;50.094;8.748;2023-04-27T08:14:51;100820.97;;;13.24;49.02
72558;BME280;60583;50.094;8.748;2023-04-27T08:17:18;100804.03;;;13.76;49.31
72558;BME280;60583;50.094;8.748;2023-04-27T08:19:43;100818.47;;;13.68;45.17
72558;BME280;60583;50.094;8.748;2023-04-27T08:22:09;100815.16;;;13.86;44.99
72558;BME280;60583;50.094;8.748;2023-04-27T08:24:34;100810.41;;;13.81;46.25
72558;BME280;60583;50.094;8.748;2023-04-27T08:27:00;100788.38;;;13.79;45.41
72558;BME280;60583;50.094;8.748;2023-04-27T08:29:27;100807.22;;;14.24;44.65
72558;BME280;60583;50.094;8.748;2023-04-27T08:31:53;100790.59;;;13.95;43.59
72558;BME280;60583;50.094;8.748;2023-04-27T08:34:19;100791.13;;;14.24;44.91
72558;BME280;60583;50.094;8.748;2023-04-27T08:36:44;100792.78;;;14.18;43.04
72558;BME280;60583;50.094;8.748;2023-04-27T08:39:09;100798.44;;;13.77;44.33
72558;BME280;60583;50.094;8.748;2023-04-27T08:41:35;100784.84;;;13.85;44.60
72558;BME280;60583;50.094;8.748;2023-04-27T08:44:01;100788.59;;;13.71;44.18
72558;BME280;60583;50.094;8.748;2023-04-27T08:46:26;100798.66;;;13.82;47.97
72558;BME280;60583;50.094;8.748;2023-04-27T08:48:52;100805.34;;;14.31;46.31
72558;BME280;60583;50.094;8.748;2023-04-27T08:51:19;100785.97;;;14.22;44.11
72558;BME280;60583;50.094;8.748;2023-04-27T08:53:50;100803.34;;;14.64;44.68
72558;BME280;60583;50.094;8.748;2023-04-27T08:56:17;100798.00;;;14.95;43.08
72558;BME280;60583;50.094;8.748;2023-04-27T08:58:42;100793.56;;;15.07;44.28
72558;BME280;60583;50.094;8.748;2023-04-27T09:01:08;100806.28;;;15.18;44.72
72558;BME280;60583;50.094;8.748;2023-04-27T09:03:34;100798.41;;;15.23;45.06
72558;BME280;60583;50.094;8.748;2023-04-27T09:06:01;100802.31;;;15.77;43.87
72558;BME280;60583;50.094;8.748;2023-04-27T09:08:27;100793.50;;;15.45;43.82
72558;BME280;60583;50.094;8.748;2023-04-27T09:10:52;100804.41;;;15.93;42.30
72558;BME280;60583;50.094;8.748;2023-04-27T09:13:19;100798.53;;;15.60;40.35
72558;BME280;60583;50.094;8.748;2023-04-27T09:15:46;100783.19;;;16.03;41.62
72558;BME280;60583;50.094;8.748;2023-04-27T09:18:20;100790.34;;;16.27;41.08
72558;BME280;60583;50.094;8.748;2023-04-27T09:20:48;100756.63;;;16.43;41.52
72558;BME280;60583;50.094;8.748;2023-04-27T09:23:30;100787.00;;;16.80;40.20
72558;BME280;60583;50.094;8.748;2023-04-27T09:25:57;100785.41;;;16.61;39.03
72558;BME280;60583;50.094;8.748;2023-04-27T09:28:24;100770.63;;;16.33;39.69
72558;BME280;60583;50.094;8.748;2023-04-27T09:30:55;100788.00;;;16.49;38.60
72558;BME280;60583;50.094;8.748;2023-04-27T09:33:26;100788.78;;;16.86;39.16
72558;BME280;60583;50.094;8.748;2023-04-27T09:35:53;100783.38;;;16.86;36.99
72558;BME280;60583;50.094;8.748;2023-04-27T09:38:19;100779.69;;;17.10;36.26
72558;BME280;60583;50.094;8.748;2023-04-27T09:40:46;100784.53;;;16.30;37.02
72558;BME280;60583;50.094;8.748;2023-04-27T09:43:12;100789.59;;;16.56;36.90
72558;BME280;60583;50.094;8.748;2023-04-27T09:45:38;100767.16;;;17.04;39.17
72558;BME280;60583;50.094;8.748;2023-04-27T09:48:04;100771.91;;;16.13;37.14
72558;BME280;60583;50.094;8.748;2023-04-27T09:50:34;100763.16;;;16.65;37.36
72558;BME280;60583;50.094;8.748;2023-04-27T09:52:59;100749.00;;;17.22;36.37
72558;BME280;60583;50.094;8.748;2023-04-27T09:55:40;100753.97;;;17.83;36.20
72558;BME280;60583;50.094;8.748;2023-04-27T10:09:49;100734.22;;;19.24;34.32
72558;BME280;60583;50.094;8.748;2023-04-27T10:12:36;100725.44;;;20.32;32.55
72558;BME280;60583;50.094;8.748;2023-04-27T10:15:12;100739.16;;;20.47;31.99
72558;BME280;60583;50.094;8.748;2023-04-27T10:17:46;100732.47;;;21.50;30.03
72558;BME280;60583;50.094;8.748;2023-04-27T10:20:12;100733.31;;;20.60;30.06
72558;BME280;60583;50.094;8.748;2023-04-27T10:22:42;100720.38;;;21.73;28.04
72558;BME280;60583;50.094;8.748;2023-04-27T10:25:19;100721.63;;;21.92;28.69
72558;BME280;60583;50.094;8.748;2023-04-27T10:27:59;100736.31;;;22.01;30.12
72558;BME280;60583;50.094;8.748;2023-04-27T10:30:30;100734.94;;;22.80;28.19
72558;BME280;60583;50.094;8.748;2023-04-27T10:32:58;100700.94;;;23.03;28.19
72558;BME280;60583;50.094;8.748;2023-04-27T10:35:52;100719.72;;;23.20;27.70
72558;BME280;60583;50.094;8.748;2023-04-27T10:38:19;100712.91;;;23.42;26.69
72558;BME280;60583;50.094;8.748;2023-04-27T10:41:00;100735.50;;;23.28;25.56
72558;BME280;60583;50.094;8.748;2023-04-27T10:43:30;100721.34;;;22.85;27.71
72558;BME280;60583;50.094;8.748;2023-04-27T10:46:12;100722.97;;;23.02;26.35
72558;BME280;60583;50.094;8.748;2023-04-27T10:48:39;100707.03;;;22.18;26.93
72558;BME280;60583;50.094;8.748;2023-04-27T10:51:06;100719.69;;;22.74;26.72
72558;BME280;60583;50.094;8.748;2023-04-27T10:53:36;100710.72;;;23.19;26.03
72558;BME280;60583;50.094;8.748;2023-04-27T10:56:02;100707.09;;;23.74;26.00
72558;BME280;60583;50.094;8.748;2023-04-27T10:58:31;100707.16;;;24.28;26.81
72558;BME280;60583;50.094;8.748;2023-04-27T11:00:57;100702.84;;;23.23;26.74
72558;BME280;60583;50.094;8.748;2023-04-27T11:03:22;100708.53;;;23.16;26.08
72558;BME280;60583;50.094;8.748;2023-04-27T11:05:49;100702.00;;;23.22;27.25
72558;BME280;60583;50.094;8.748;2023-04-27T11:08:23;100707.72;;;23.56;27.03
72558;BME280;60583;50.094;8.748;2023-04-27T11:10:50;100691.13;;;23.22;25.71
72558;BME280;60583;50.094;8.748;2023-04-27T11:13:18;100707.47;;;22.77;24.68
72558;BME280;60583;50.094;8.748;2023-04-27T11:15:44;100712.03;;;21.84;25.50
72558;BME280;60583;50.094;8.748;2023-04-27T11:18:10;100708.22;;;22.47;25.67
72558;BME280;60583;50.094;8.748;2023-04-27T11:20:35;100693.03;;;22.71;26.98
72558;BME280;60583;50.094;8.748;2023-04-27T11:23:01;100695.22;;;22.90;27.07
72558;BME280;60583;50.094;8.748;2023-04-27T11:25:29;100684.13;;;21.89;27.35
72558;BME280;60583;50.094;8.748;2023-04-27T11:27:54;100692.94;;;22.26;26.91
72558;BME280;60583;50.094;8.748;2023-04-27T11:30:21;100689.78;;;22.64;28.10
72558;BME280;60583;50.094;8.748;2023-04-27T11:32:48;100700.56;;;20.93;28.16
72558;BME280;60583;50.094;8.748;2023-04-27T11:35:14;100674.31;;;21.36;28.43
72558;BME280;60583;50.094;8.748;2023-04-27T11:37:40;100690.75;;;21.61;27.14
72558;BME280;60583;50.094;8.748;2023-04-27T11:40:06;100667.19;;;20.93;27.59
72558;BME280;60583;50.094;8.748;2023-04-27T11:42:34;100686.19;;;20.13;28.76
72558;BME280;60583;50.094;8.748;2023-04-27T11:45:01;100673.63;;;19.80;29.81
72558;BME280;60583;50.094;8.748;2023-04-27T11:47:33;100691.31;;;20.31;28.86
72558;BME280;60583;50.094;8.748;2023-04-27T11:50:02;100678.72;;;21.47;27.13
72558;BME280;60583;50.094;8.748;2023-04-27T11:52:33;100673.00;;;22.00;25.87
72558;BME280;60583;50.094;8.748;2023-04-27T11:55:00;100678.13;;;21.87;27.13
72558;BME280;60583;50.094;8.748;2023-04-27T11:57:27;100664.19;;;22.45;25.56
72558;BME280;60583;50.094;8.748;2023-04-27T11:59:54;100662.81;;;22.38;27.30
72558;BME280;60583;50.094;8.748;2023-04-27T12:02:20;100656.59;;;22.77;27.01
72558;BME280;60583;50.094;8.748;2023-04-27T12:04:49;100657.66;;;22.56;25.27
72558;BME280;60583;50.094;8.748;2023-04-27T12:07:15;100666.09;;;22.60;24.85
72558;BME280;60583;50.094;8.748;2023-04-27T12:09:41;100648.13;;;22.49;24.37
72558;BME280;60583;50.094;8.748;2023-04-27T12:12:07;100656.28;;;23.19;24.29
72558;BME280;60583;50.094;8.748;2023-04-27T12:14:32;100651.16;;;22.98;24.30
72558;BME280;60583;50.094;8.748;2023-04-27T12:16:58;100654.28;;;21.99;24.84
72558;BME280;60583;50.094;8.748;2023-04-27T12:19:23;100656.47;;;22.07;26.06
72558;BME280;60583;50.094;8.748;2023-04-27T12:21:50;100645.63;;;22.17;26.01
72558;BME280;60583;50.094;8.748;2023-04-27T12:24:16;100649.44;;;22.26;25.19
72558;BME280;60583;50.094;8.748;2023-04-27T12:26:42;100652.47;;;22.35;24.74
72558;BME280;60583;50.094;8.748;2023-04-27T12:29:07;100632.38;;;21.58;25.18
72558;BME280;60583;50.094;8.748;2023-04-27T12:31:32;100631.88;;;21.67;25.81
72558;BME280;60583;50.094;8.748;2023-04-27T12:33:58;100620.41;;;21.08;25.66
72558;BME280;60583;50.094;8.748;2023-04-27T12:36:23;100618.84;;;20.80;26.45
72558;BME280;60583;50.094;8.748;2023-04-27T12:38:50;100634.44;;;21.36;26.81
72558;BME280;60583;50.094;8.748;2023-04-27T12:41:15;100623.19;;;21.65;26.49
72558;BME280;60583;50.094;8.748;2023-04-27T12:43:41;100613.13;;;21.70;27.05
72558;BME280;60583;50.094;8.748;2023-04-27T12:46:07;100628.72;;;21.38;27.00
72558;BME280;60583;50.094;8.748;2023-04-27T12:48:33;100611.84;;;20.84;26.26
72558;BME280;60583;50.094;8.748;2023-04-27T12:50:58;100623.84;;;20.61;27.14
72558;BME280;60583;50.094;8.748;2023-04-27T12:53:23;100624.91;;;20.28;27.45
72558;BME280;60583;50.094;8.748;2023-04-27T12:55:49;100600.75;;;20.00;26.97
72558;BME280;60583;50.094;8.748;2023-04-27T12:58:15;100611.31;;;20.23;27.94
72558;BME280;60583;50.094;8.748;2023-04-27T13:00:40;100626.72;;;19.96;28.53
72558;BME280;60583;50.094;8.748;2023-04-27T13:03:06;100584.31;;;19.80;28.73